sensor_id;sensor_type;location;lat;lon;timestamp;temperature;humidity
7738;DHT22;29398;45.328;5.558;2023-08-06T00:00:55;20.00;88.90
7738;DHT22;29398;45.328;5.558;2023-08-06T00:01:56;19.90;88.80
7738;DHT22;29398;45.328;5.558;2023-08-06T00:02:58;19.90;89.20
7738;DHT22;29398;45.328;5.558;2023-08-06T00:03:59;19.90;89.10
7738;DHT22;29398;45.328;5.558;2023-08-06T00:05:02;19.80;88.50
7738;DHT22;29398;45.328;5.558;2023-08-06T00:06:05;19.90;89.10
7738;DHT22;29398;45.328;5.558;2023-08-06T00:07:07;19.80;89.40
7738;DHT22;29398;45.328;5.558;2023-08-06T00:08:08;19.80;89.20
7738;DHT22;29398;45.328;5.558;2023-08-06T00:09:10;19.80;89.30
7738;DHT22;29398;45.328;5.558;2023-08-06T00:10:11;19.80;89.40
7738;DHT22;29398;45.328;5.558;2023-08-06T00:11:13;19.80;89.50
7738;DHT22;29398;45.328;5.558;2023-08-06T00:12:14;19.70;89.50
7738;DHT22;29398;45.328;5.558;2023-08-06T00:13:18;19.70;89.50
7738;DHT22;29398;45.328;5.558;2023-08-06T00:14:19;19.70;89.90
7738;DHT22;29398;45.328;5.558;2023-08-06T00:15:22;19.70;90.00
7738;DHT22;29398;45.328;5.558;2023-08-06T00:16:23;19.60;89.80
7738;DHT22;29398;45.328;5.558;2023-08-06T00:17:25;19.60;89.70
7738;DHT22;29398;45.328;5.558;2023-08-06T00:18:26;19.60;90.00
7738;DHT22;29398;45.328;5.558;2023-08-06T00:19:28;19.60;89.90
7738;DHT22;29398;45.328;5.558;2023-08-06T00:20:29;19.50;89.80
7738;DHT22;29398;45.328;5.558;2023-08-06T00:22:33;19.60;90.30
7738;DHT22;29398;45.328;5.558;2023-08-06T00:23:34;19.60;90.20
7738;DHT22;29398;45.328;5.558;2023-08-06T00:24:36;19.60;90.40
7738;DHT22;29398;45.328;5.558;2023-08-06T00:25:37;19.60;90.40
7738;DHT22;29398;45.328;5.558;2023-08-06T00:26:39;19.50;90.40
7738;DHT22;29398;45.328;5.558;2023-08-06T00:27:40;19.50;90.50
7738;DHT22;29398;45.328;5.558;2023-08-06T00:28:44;19.40;90.40
7738;DHT22;29398;45.328;5.558;2023-08-06T00:29:45;19.40;90.40
7738;DHT22;29398;45.328;5.558;2023-08-06T00:30:52;19.40;90.20
7738;DHT22;29398;45.328;5.558;2023-08-06T00:31:53;19.40;90.50
7738;DHT22;29398;45.328;5.558;2023-08-06T00:32:55;19.40;90.50
7738;DHT22;29398;45.328;5.558;2023-08-06T00:33:56;19.40;90.30
7738;DHT22;29398;45.328;5.558;2023-08-06T00:34:58;19.40;90.50
7738;DHT22;29398;45.328;5.558;2023-08-06T00:36:00;19.40;90.60
7738;DHT22;29398;45.328;5.558;2023-08-06T00:37:02;19.40;90.60
7738;DHT22;29398;45.328;5.558;2023-08-06T00:38:03;19.40;90.60
7738;DHT22;29398;45.328;5.558;2023-08-06T00:39:05;19.30;90.60
7738;DHT22;29398;45.328;5.558;2023-08-06T00:40:08;19.30;91.00
7738;DHT22;29398;45.328;5.558;2023-08-06T00:41:10;19.30;90.70
7738;DHT22;29398;45.328;5.558;2023-08-06T00:42:11;19.30;90.80
7738;DHT22;29398;45.328;5.558;2023-08-06T00:43:13;19.30;90.40
7738;DHT22;29398;45.328;5.558;2023-08-06T00:44:16;19.20;90.50
7738;DHT22;29398;45.328;5.558;2023-08-06T00:45:18;19.30;90.80
7738;DHT22;29398;45.328;5.558;2023-08-06T00:46:19;19.30;90.80
7738;DHT22;29398;45.328;5.558;2023-08-06T00:47:21;19.30;91.10
7738;DHT22;29398;45.328;5.558;2023-08-06T00:48:22;19.30;90.90
7738;DHT22;29398;45.328;5.558;2023-08-06T00:49:24;19.30;90.70
7738;DHT22;29398;45.328;5.558;2023-08-06T00:50:26;19.20;90.60
7738;DHT22;29398;45.328;5.558;2023-08-06T00:51:28;19.20;90.90
7738;DHT22;29398;45.328;5.558;2023-08-06T00:52:29;19.20;91.00
7738;DHT22;29398;45.328;5.558;2023-08-06T00:53:31;19.20;91.20
7738;DHT22;29398;45.328;5.558;2023-08-06T00:54:33;19.20;91.20
7738;DHT22;29398;45.328;5.558;2023-08-06T00:55:35;19.20;91.50
7738;DHT22;29398;45.328;5.558;2023-08-06T00:56:37;19.20;91.50
7738;DHT22;29398;45.328;5.558;2023-08-06T00:57:39;19.20;91.50
7738;DHT22;29398;45.328;5.558;2023-08-06T00:58:40;19.20;91.90
7738;DHT22;29398;45.328;5.558;2023-08-06T00:59:45;19.20;91.40
7738;DHT22;29398;45.328;5.558;2023-08-06T01:00:47;19.10;91.30
7738;DHT22;29398;45.328;5.558;2023-08-06T01:01:49;19.20;91.40
7738;DHT22;29398;45.328;5.558;2023-08-06T01:04:55;19.10;91.50
7738;DHT22;29398;45.328;5.558;2023-08-06T01:05:57;19.20;91.70
7738;DHT22;29398;45.328;5.558;2023-08-06T01:07:10;19.10;91.80
7738;DHT22;29398;45.328;5.558;2023-08-06T01:08:28;19.10;91.90
7738;DHT22;29398;45.328;5.558;2023-08-06T01:09:37;19.00;92.00
7738;DHT22;29398;45.328;5.558;2023-08-06T01:10:51;19.00;92.20
7738;DHT22;29398;45.328;5.558;2023-08-06T01:12:05;19.00;92.10
7738;DHT22;29398;45.328;5.558;2023-08-06T01:13:15;19.00;92.10
7738;DHT22;29398;45.328;5.558;2023-08-06T01:14:23;19.00;92.50
7738;DHT22;29398;45.328;5.558;2023-08-06T01:15:32;19.00;92.70
7738;DHT22;29398;45.328;5.558;2023-08-06T01:16:35;19.00;92.50
7738;DHT22;29398;45.328;5.558;2023-08-06T01:18:42;19.00;92.80
7738;DHT22;29398;45.328;5.558;2023-08-06T01:19:46;19.00;92.90
7738;DHT22;29398;45.328;5.558;2023-08-06T01:20:49;19.00;92.90
7738;DHT22;29398;45.328;5.558;2023-08-06T01:21:51;19.00;92.90
7738;DHT22;29398;45.328;5.558;2023-08-06T01:23:55;19.00;93.20
7738;DHT22;29398;45.328;5.558;2023-08-06T01:24:56;19.00;93.20
7738;DHT22;29398;45.328;5.558;2023-08-06T01:26:03;19.00;93.30
7738;DHT22;29398;45.328;5.558;2023-08-06T01:27:14;19.00;93.20
7738;DHT22;29398;45.328;5.558;2023-08-06T01:28:22;19.00;93.30
7738;DHT22;29398;45.328;5.558;2023-08-06T01:29:28;19.00;93.40
7738;DHT22;29398;45.328;5.558;2023-08-06T01:30:33;19.00;93.40
7738;DHT22;29398;45.328;5.558;2023-08-06T01:31:42;19.00;93.40
7738;DHT22;29398;45.328;5.558;2023-08-06T01:32:48;19.00;93.40
7738;DHT22;29398;45.328;5.558;2023-08-06T01:33:51;19.00;93.20
7738;DHT22;29398;45.328;5.558;2023-08-06T01:34:54;19.00;93.40
7738;DHT22;29398;45.328;5.558;2023-08-06T01:35:58;19.00;93.70
7738;DHT22;29398;45.328;5.558;2023-08-06T01:37:01;19.00;93.60
7738;DHT22;29398;45.328;5.558;2023-08-06T01:39:05;19.00;93.80
7738;DHT22;29398;45.328;5.558;2023-08-06T01:40:09;19.00;93.90
7738;DHT22;29398;45.328;5.558;2023-08-06T01:41:11;19.00;93.90
7738;DHT22;29398;45.328;5.558;2023-08-06T01:42:12;19.00;94.10
7738;DHT22;29398;45.328;5.558;2023-08-06T01:43:14;18.90;94.10
7738;DHT22;29398;45.328;5.558;2023-08-06T01:44:17;18.90;94.20
7738;DHT22;29398;45.328;5.558;2023-08-06T01:45:18;19.00;94.40
7738;DHT22;29398;45.328;5.558;2023-08-06T01:47:21;19.00;94.50
7738;DHT22;29398;45.328;5.558;2023-08-06T01:48:23;19.00;94.50
7738;DHT22;29398;45.328;5.558;2023-08-06T01:49:25;19.00;94.60
7738;DHT22;29398;45.328;5.558;2023-08-06T01:50:28;19.00;94.60
7738;DHT22;29398;45.328;5.558;2023-08-06T01:51:30;19.00;94.60
7738;DHT22;29398;45.328;5.558;2023-08-06T01:52:32;19.00;94.70
7738;DHT22;29398;45.328;5.558;2023-08-06T01:55:39;19.00;94.50
7738;DHT22;29398;45.328;5.558;2023-08-06T01:56:41;19.00;94.40
7738;DHT22;29398;45.328;5.558;2023-08-06T01:57:42;19.00;94.40
7738;DHT22;29398;45.328;5.558;2023-08-06T01:58:44;19.00;94.50
7738;DHT22;29398;45.328;5.558;2023-08-06T02:01:48;19.00;94.40
7738;DHT22;29398;45.328;5.558;2023-08-06T02:03:52;18.90;94.50
7738;DHT22;29398;45.328;5.558;2023-08-06T02:04:53;18.90;94.60
7738;DHT22;29398;45.328;5.558;2023-08-06T02:05:55;18.90;94.60
7738;DHT22;29398;45.328;5.558;2023-08-06T02:06:57;18.90;94.60
7738;DHT22;29398;45.328;5.558;2023-08-06T02:09:01;18.90;94.70
7738;DHT22;29398;45.328;5.558;2023-08-06T02:10:03;18.90;94.80
7738;DHT22;29398;45.328;5.558;2023-08-06T02:11:04;18.80;94.70
7738;DHT22;29398;45.328;5.558;2023-08-06T02:12:07;18.80;95.10
7738;DHT22;29398;45.328;5.558;2023-08-06T02:13:08;18.70;95.20
7738;DHT22;29398;45.328;5.558;2023-08-06T02:16:16;18.60;95.80
7738;DHT22;29398;45.328;5.558;2023-08-06T02:19:21;18.60;96.20
7738;DHT22;29398;45.328;5.558;2023-08-06T02:20:23;18.60;96.70
7738;DHT22;29398;45.328;5.558;2023-08-06T02:21:24;18.60;96.90
7738;DHT22;29398;45.328;5.558;2023-08-06T02:22:26;18.50;96.80
7738;DHT22;29398;45.328;5.558;2023-08-06T02:24:30;18.50;96.80
7738;DHT22;29398;45.328;5.558;2023-08-06T02:27:37;18.40;97.20
7738;DHT22;29398;45.328;5.558;2023-08-06T02:31:51;18.40;97.60
7738;DHT22;29398;45.328;5.558;2023-08-06T02:32:53;18.40;97.70
7738;DHT22;29398;45.328;5.558;2023-08-06T02:33:55;18.40;97.80
7738;DHT22;29398;45.328;5.558;2023-08-06T02:36:02;18.40;97.90
7738;DHT22;29398;45.328;5.558;2023-08-06T02:37:04;18.40;98.20
7738;DHT22;29398;45.328;5.558;2023-08-06T02:38:08;18.40;98.10
7738;DHT22;29398;45.328;5.558;2023-08-06T02:39:09;18.40;98.10
7738;DHT22;29398;45.328;5.558;2023-08-06T02:40:11;18.40;98.30
7738;DHT22;29398;45.328;5.558;2023-08-06T02:41:12;18.40;98.40
7738;DHT22;29398;45.328;5.558;2023-08-06T02:46:23;18.30;98.60
7738;DHT22;29398;45.328;5.558;2023-08-06T02:47:26;18.30;98.80
7738;DHT22;29398;45.328;5.558;2023-08-06T02:48:27;18.30;98.60
7738;DHT22;29398;45.328;5.558;2023-08-06T02:50:30;18.30;98.90
7738;DHT22;29398;45.328;5.558;2023-08-06T02:55:47;18.20;99.00
7738;DHT22;29398;45.328;5.558;2023-08-06T02:58:02;18.20;99.50
7738;DHT22;29398;45.328;5.558;2023-08-06T03:01:31;18.10;99.80
7738;DHT22;29398;45.328;5.558;2023-08-06T03:03:56;18.10;99.90
7738;DHT22;29398;45.328;5.558;2023-08-06T03:07:19;18.10;99.90
7738;DHT22;29398;45.328;5.558;2023-08-06T03:08:28;18.10;99.90
7738;DHT22;29398;45.328;5.558;2023-08-06T03:09:31;18.20;99.90
7738;DHT22;29398;45.328;5.558;2023-08-06T03:10:33;18.10;99.90
7738;DHT22;29398;45.328;5.558;2023-08-06T03:12:43;18.10;99.90
7738;DHT22;29398;45.328;5.558;2023-08-06T03:13:46;18.10;99.90
7738;DHT22;29398;45.328;5.558;2023-08-06T03:14:47;18.10;99.90
7738;DHT22;29398;45.328;5.558;2023-08-06T03:15:53;18.10;99.90
7738;DHT22;29398;45.328;5.558;2023-08-06T03:17:57;18.20;99.90
7738;DHT22;29398;45.328;5.558;2023-08-06T03:18:59;18.10;99.90
7738;DHT22;29398;45.328;5.558;2023-08-06T03:20:01;18.20;99.90
7738;DHT22;29398;45.328;5.558;2023-08-06T03:22:06;18.10;99.90
7738;DHT22;29398;45.328;5.558;2023-08-06T03:23:09;18.10;99.90
7738;DHT22;29398;45.328;5.558;2023-08-06T03:25:16;18.10;99.90
7738;DHT22;29398;45.328;5.558;2023-08-06T03:26:22;18.10;99.90
7738;DHT22;29398;45.328;5.558;2023-08-06T03:27:23;18.10;99.90
7738;DHT22;29398;45.328;5.558;2023-08-06T03:28:26;18.10;99.90
7738;DHT22;29398;45.328;5.558;2023-08-06T03:30:34;18.10;99.90
7738;DHT22;29398;45.328;5.558;2023-08-06T03:32:38;18.10;99.90
7738;DHT22;29398;45.328;5.558;2023-08-06T03:34:47;18.00;99.90
7738;DHT22;29398;45.328;5.558;2023-08-06T03:35:50;17.90;99.90
7738;DHT22;29398;45.328;5.558;2023-08-06T03:41:03;17.90;99.90
7738;DHT22;29398;45.328;5.558;2023-08-06T03:43:06;17.90;99.90
7738;DHT22;29398;45.328;5.558;2023-08-06T03:45:10;17.80;99.90
7738;DHT22;29398;45.328;5.558;2023-08-06T03:47:15;17.80;99.90
7738;DHT22;29398;45.328;5.558;2023-08-06T03:48:16;17.70;99.90
7738;DHT22;29398;45.328;5.558;2023-08-06T03:49:19;17.70;99.90
7738;DHT22;29398;45.328;5.558;2023-08-06T03:50:22;17.70;99.90
7738;DHT22;29398;45.328;5.558;2023-08-06T03:51:24;17.70;99.90
7738;DHT22;29398;45.328;5.558;2023-08-06T03:52:27;17.70;99.90
7738;DHT22;29398;45.328;5.558;2023-08-06T03:54:30;17.70;99.90
7738;DHT22;29398;45.328;5.558;2023-08-06T03:56:35;17.70;99.90
7738;DHT22;29398;45.328;5.558;2023-08-06T03:58:39;17.70;99.90
7738;DHT22;29398;45.328;5.558;2023-08-06T04:00:44;17.70;99.90
7738;DHT22;29398;45.328;5.558;2023-08-06T04:01:46;17.70;99.90
7738;DHT22;29398;45.328;5.558;2023-08-06T04:02:48;17.70;99.90
7738;DHT22;29398;45.328;5.558;2023-08-06T04:03:49;17.70;99.90
7738;DHT22;29398;45.328;5.558;2023-08-06T04:05:54;17.70;99.90
7738;DHT22;29398;45.328;5.558;2023-08-06T04:06:56;17.80;99.90
7738;DHT22;29398;45.328;5.558;2023-08-06T04:07:58;17.70;99.90
7738;DHT22;29398;45.328;5.558;2023-08-06T04:09:00;17.80;99.90
7738;DHT22;29398;45.328;5.558;2023-08-06T04:10:03;17.70;99.90
7738;DHT22;29398;45.328;5.558;2023-08-06T04:11:06;17.80;99.90
7738;DHT22;29398;45.328;5.558;2023-08-06T04:12:09;17.70;99.90
7738;DHT22;29398;45.328;5.558;2023-08-06T04:13:11;17.80;99.90
7738;DHT22;29398;45.328;5.558;2023-08-06T04:14:12;17.60;99.90
7738;DHT22;29398;45.328;5.558;2023-08-06T04:15:14;17.80;99.90
7738;DHT22;29398;45.328;5.558;2023-08-06T04:16:15;17.80;99.90
7738;DHT22;29398;45.328;5.558;2023-08-06T04:17:16;17.80;99.90
7738;DHT22;29398;45.328;5.558;2023-08-06T04:18:20;17.80;99.90
7738;DHT22;29398;45.328;5.558;2023-08-06T04:19:22;17.80;99.90
7738;DHT22;29398;45.328;5.558;2023-08-06T04:20:25;17.80;99.90
7738;DHT22;29398;45.328;5.558;2023-08-06T04:21:26;17.70;99.90
7738;DHT22;29398;45.328;5.558;2023-08-06T04:22:29;17.80;99.90
7738;DHT22;29398;45.328;5.558;2023-08-06T04:23:30;17.80;99.90
7738;DHT22;29398;45.328;5.558;2023-08-06T04:24:35;17.80;99.90
7738;DHT22;29398;45.328;5.558;2023-08-06T04:25:38;17.80;99.90
7738;DHT22;29398;45.328;5.558;2023-08-06T04:26:39;17.80;99.90
7738;DHT22;29398;45.328;5.558;2023-08-06T04:27:42;17.80;99.90
7738;DHT22;29398;45.328;5.558;2023-08-06T04:28:44;17.80;99.90
7738;DHT22;29398;45.328;5.558;2023-08-06T04:29:46;17.80;99.90
7738;DHT22;29398;45.328;5.558;2023-08-06T04:30:48;17.80;99.90
7738;DHT22;29398;45.328;5.558;2023-08-06T04:31:50;17.80;99.90
7738;DHT22;29398;45.328;5.558;2023-08-06T04:32:51;17.80;99.90
7738;DHT22;29398;45.328;5.558;2023-08-06T04:33:53;17.80;99.90
7738;DHT22;29398;45.328;5.558;2023-08-06T04:34:55;17.80;99.90
7738;DHT22;29398;45.328;5.558;2023-08-06T04:35:59;17.80;99.90
7738;DHT22;29398;45.328;5.558;2023-08-06T04:37:02;17.80;99.90
7738;DHT22;29398;45.328;5.558;2023-08-06T04:38:03;17.80;99.90
7738;DHT22;29398;45.328;5.558;2023-08-06T04:40:08;17.80;99.90
7738;DHT22;29398;45.328;5.558;2023-08-06T04:41:11;17.80;99.90
7738;DHT22;29398;45.328;5.558;2023-08-06T04:42:12;17.80;99.90
7738;DHT22;29398;45.328;5.558;2023-08-06T04:43:15;17.80;99.90
7738;DHT22;29398;45.328;5.558;2023-08-06T04:44:16;17.80;99.90
7738;DHT22;29398;45.328;5.558;2023-08-06T04:45:19;17.80;99.90
7738;DHT22;29398;45.328;5.558;2023-08-06T04:47:22;17.80;99.90
7738;DHT22;29398;45.328;5.558;2023-08-06T04:48:23;17.80;99.90
7738;DHT22;29398;45.328;5.558;2023-08-06T04:49:25;17.90;99.90
7738;DHT22;29398;45.328;5.558;2023-08-06T04:50:27;17.90;99.90
7738;DHT22;29398;45.328;5.558;2023-08-06T04:51:28;17.80;99.90
7738;DHT22;29398;45.328;5.558;2023-08-06T04:52:30;17.90;99.90
7738;DHT22;29398;45.328;5.558;2023-08-06T04:53:33;17.80;99.90
7738;DHT22;29398;45.328;5.558;2023-08-06T04:54:35;17.90;99.90
7738;DHT22;29398;45.328;5.558;2023-08-06T04:56:38;17.90;99.90
7738;DHT22;29398;45.328;5.558;2023-08-06T04:57:39;17.90;99.90
7738;DHT22;29398;45.328;5.558;2023-08-06T04:58:43;17.90;99.90
7738;DHT22;29398;45.328;5.558;2023-08-06T04:59:44;17.80;99.90
7738;DHT22;29398;45.328;5.558;2023-08-06T05:00:46;17.80;99.90
7738;DHT22;29398;45.328;5.558;2023-08-06T05:01:47;17.80;99.90
7738;DHT22;29398;45.328;5.558;2023-08-06T05:02:49;17.90;99.90
7738;DHT22;29398;45.328;5.558;2023-08-06T05:03:50;17.90;99.90
7738;DHT22;29398;45.328;5.558;2023-08-06T05:05:55;17.80;99.90
7738;DHT22;29398;45.328;5.558;2023-08-06T05:06:57;17.90;99.90
7738;DHT22;29398;45.328;5.558;2023-08-06T05:07:58;17.90;99.90
7738;DHT22;29398;45.328;5.558;2023-08-06T05:09:00;17.90;99.90
7738;DHT22;29398;45.328;5.558;2023-08-06T05:11:05;17.90;99.90
7738;DHT22;29398;45.328;5.558;2023-08-06T05:12:06;18.00;99.90
7738;DHT22;29398;45.328;5.558;2023-08-06T05:13:09;17.90;99.90
7738;DHT22;29398;45.328;5.558;2023-08-06T05:14:11;17.90;99.90
7738;DHT22;29398;45.328;5.558;2023-08-06T05:15:13;18.00;99.90
7738;DHT22;29398;45.328;5.558;2023-08-06T05:16:14;18.00;99.90
7738;DHT22;29398;45.328;5.558;2023-08-06T05:18:17;18.00;99.90
7738;DHT22;29398;45.328;5.558;2023-08-06T05:19:19;18.00;99.90
7738;DHT22;29398;45.328;5.558;2023-08-06T05:20:21;18.00;99.90
7738;DHT22;29398;45.328;5.558;2023-08-06T05:22:24;18.00;99.90
7738;DHT22;29398;45.328;5.558;2023-08-06T05:24:27;18.00;99.90
7738;DHT22;29398;45.328;5.558;2023-08-06T05:25:30;18.00;99.90
7738;DHT22;29398;45.328;5.558;2023-08-06T05:26:31;18.00;99.90
7738;DHT22;29398;45.328;5.558;2023-08-06T05:27:33;18.00;99.90
7738;DHT22;29398;45.328;5.558;2023-08-06T05:28:34;18.00;99.90
7738;DHT22;29398;45.328;5.558;2023-08-06T05:29:37;18.00;99.90
7738;DHT22;29398;45.328;5.558;2023-08-06T05:30:39;18.00;99.90
7738;DHT22;29398;45.328;5.558;2023-08-06T05:31:41;18.10;99.90
7738;DHT22;29398;45.328;5.558;2023-08-06T05:32:42;18.00;99.90
7738;DHT22;29398;45.328;5.558;2023-08-06T05:33:44;18.10;99.90
7738;DHT22;29398;45.328;5.558;2023-08-06T05:34:46;18.00;99.90
7738;DHT22;29398;45.328;5.558;2023-08-06T05:35:47;18.10;99.90
7738;DHT22;29398;45.328;5.558;2023-08-06T05:36:50;18.10;99.90
7738;DHT22;29398;45.328;5.558;2023-08-06T05:37:51;18.10;99.90
7738;DHT22;29398;45.328;5.558;2023-08-06T05:38:53;18.10;99.90
7738;DHT22;29398;45.328;5.558;2023-08-06T05:39:55;18.10;99.90
7738;DHT22;29398;45.328;5.558;2023-08-06T05:41:58;18.10;99.90
7738;DHT22;29398;45.328;5.558;2023-08-06T05:43:00;18.10;99.90
7738;DHT22;29398;45.328;5.558;2023-08-06T05:44:01;18.20;99.90
7738;DHT22;29398;45.328;5.558;2023-08-06T05:45:05;18.10;99.90
7738;DHT22;29398;45.328;5.558;2023-08-06T05:46:07;18.20;99.90
7738;DHT22;29398;45.328;5.558;2023-08-06T05:47:09;18.20;99.90
7738;DHT22;29398;45.328;5.558;2023-08-06T05:49:12;18.30;99.90
7738;DHT22;29398;45.328;5.558;2023-08-06T05:50:14;18.30;99.90
7738;DHT22;29398;45.328;5.558;2023-08-06T05:51:16;18.30;99.90
7738;DHT22;29398;45.328;5.558;2023-08-06T05:53:19;18.30;99.90
7738;DHT22;29398;45.328;5.558;2023-08-06T05:54:21;18.30;99.90
7738;DHT22;29398;45.328;5.558;2023-08-06T05:55:23;18.40;99.90
7738;DHT22;29398;45.328;5.558;2023-08-06T05:56:24;18.40;99.90
7738;DHT22;29398;45.328;5.558;2023-08-06T05:57:26;18.40;99.90
7738;DHT22;29398;45.328;5.558;2023-08-06T05:58:27;18.40;99.90
7738;DHT22;29398;45.328;5.558;2023-08-06T06:02:37;18.40;99.90
7738;DHT22;29398;45.328;5.558;2023-08-06T06:04:41;18.50;99.90
7738;DHT22;29398;45.328;5.558;2023-08-06T06:06:44;18.40;99.90
7738;DHT22;29398;45.328;5.558;2023-08-06T06:07:46;18.50;99.90
7738;DHT22;29398;45.328;5.558;2023-08-06T06:09:50;18.50;99.90
7738;DHT22;29398;45.328;5.558;2023-08-06T06:10:51;18.50;99.90
7738;DHT22;29398;45.328;5.558;2023-08-06T06:11:53;18.50;99.90
7738;DHT22;29398;45.328;5.558;2023-08-06T06:13:55;18.60;99.90
7738;DHT22;29398;45.328;5.558;2023-08-06T06:18:05;18.50;99.90
7738;DHT22;29398;45.328;5.558;2023-08-06T06:19:07;18.50;99.90
7738;DHT22;29398;45.328;5.558;2023-08-06T06:21:11;18.50;99.90
7738;DHT22;29398;45.328;5.558;2023-08-06T06:23:14;18.50;99.40
7738;DHT22;29398;45.328;5.558;2023-08-06T06:24:15;18.50;99.70
7738;DHT22;29398;45.328;5.558;2023-08-06T06:25:18;18.50;99.70
7738;DHT22;29398;45.328;5.558;2023-08-06T06:27:21;18.50;98.40
7738;DHT22;29398;45.328;5.558;2023-08-06T06:28:22;18.50;98.30
7738;DHT22;29398;45.328;5.558;2023-08-06T06:29:24;18.50;98.40
7738;DHT22;29398;45.328;5.558;2023-08-06T06:30:25;18.60;98.00
7738;DHT22;29398;45.328;5.558;2023-08-06T06:31:29;18.60;97.60
7738;DHT22;29398;45.328;5.558;2023-08-06T06:32:30;18.60;97.40
7738;DHT22;29398;45.328;5.558;2023-08-06T06:35:36;18.50;97.20
7738;DHT22;29398;45.328;5.558;2023-08-06T06:36:37;18.60;97.40
7738;DHT22;29398;45.328;5.558;2023-08-06T06:39:43;18.60;97.00
7738;DHT22;29398;45.328;5.558;2023-08-06T06:40:53;18.60;97.30
7738;DHT22;29398;45.328;5.558;2023-08-06T06:43:05;18.70;96.00
7738;DHT22;29398;45.328;5.558;2023-08-06T06:44:07;18.60;96.20
7738;DHT22;29398;45.328;5.558;2023-08-06T06:45:09;18.70;95.40
7738;DHT22;29398;45.328;5.558;2023-08-06T06:46:11;18.70;95.10
7738;DHT22;29398;45.328;5.558;2023-08-06T06:47:13;18.70;95.60
7738;DHT22;29398;45.328;5.558;2023-08-06T06:48:15;18.70;95.50
7738;DHT22;29398;45.328;5.558;2023-08-06T06:49:16;18.70;95.50
7738;DHT22;29398;45.328;5.558;2023-08-06T06:50:18;18.70;95.50
7738;DHT22;29398;45.328;5.558;2023-08-06T06:52:21;18.60;95.60
7738;DHT22;29398;45.328;5.558;2023-08-06T06:53:23;18.70;95.50
7738;DHT22;29398;45.328;5.558;2023-08-06T06:54:28;18.70;95.50
7738;DHT22;29398;45.328;5.558;2023-08-06T06:56:31;18.80;95.40
7738;DHT22;29398;45.328;5.558;2023-08-06T06:58:34;18.80;94.40
7738;DHT22;29398;45.328;5.558;2023-08-06T06:59:37;18.80;94.90
7738;DHT22;29398;45.328;5.558;2023-08-06T07:00:38;18.70;94.70
7738;DHT22;29398;45.328;5.558;2023-08-06T07:01:40;18.80;94.50
7738;DHT22;29398;45.328;5.558;2023-08-06T07:02:43;18.80;95.20
7738;DHT22;29398;45.328;5.558;2023-08-06T07:03:45;18.80;95.20
7738;DHT22;29398;45.328;5.558;2023-08-06T07:04:46;18.80;95.20
7738;DHT22;29398;45.328;5.558;2023-08-06T07:05:49;18.90;94.70
7738;DHT22;29398;45.328;5.558;2023-08-06T07:07:53;18.90;94.80
7738;DHT22;29398;45.328;5.558;2023-08-06T07:09:57;19.00;95.00
7738;DHT22;29398;45.328;5.558;2023-08-06T07:11:02;19.10;95.00
7738;DHT22;29398;45.328;5.558;2023-08-06T07:12:05;19.10;94.50
7738;DHT22;29398;45.328;5.558;2023-08-06T07:13:06;19.10;95.20
7738;DHT22;29398;45.328;5.558;2023-08-06T07:14:08;19.20;95.70
7738;DHT22;29398;45.328;5.558;2023-08-06T07:15:10;19.20;95.10
7738;DHT22;29398;45.328;5.558;2023-08-06T07:16:12;19.30;94.90
7738;DHT22;29398;45.328;5.558;2023-08-06T07:17:13;19.30;95.00
7738;DHT22;29398;45.328;5.558;2023-08-06T07:18:16;19.30;95.00
7738;DHT22;29398;45.328;5.558;2023-08-06T07:19:17;19.40;94.70
7738;DHT22;29398;45.328;5.558;2023-08-06T07:20:19;19.40;94.80
7738;DHT22;29398;45.328;5.558;2023-08-06T07:21:21;19.50;94.90
7738;DHT22;29398;45.328;5.558;2023-08-06T07:22:23;19.50;94.70
7738;DHT22;29398;45.328;5.558;2023-08-06T07:23:25;19.60;94.70
7738;DHT22;29398;45.328;5.558;2023-08-06T07:24:27;19.60;95.00
7738;DHT22;29398;45.328;5.558;2023-08-06T07:25:28;19.60;94.40
7738;DHT22;29398;45.328;5.558;2023-08-06T07:26:30;19.70;94.40
7738;DHT22;29398;45.328;5.558;2023-08-06T07:27:32;19.70;94.70
7738;DHT22;29398;45.328;5.558;2023-08-06T07:28:34;19.70;94.60
7738;DHT22;29398;45.328;5.558;2023-08-06T07:29:35;19.80;94.20
7738;DHT22;29398;45.328;5.558;2023-08-06T07:30:38;19.80;94.50
7738;DHT22;29398;45.328;5.558;2023-08-06T07:31:40;19.80;94.50
7738;DHT22;29398;45.328;5.558;2023-08-06T07:32:42;19.80;94.30
7738;DHT22;29398;45.328;5.558;2023-08-06T07:33:44;19.80;94.30
7738;DHT22;29398;45.328;5.558;2023-08-06T07:34:46;19.80;94.70
7738;DHT22;29398;45.328;5.558;2023-08-06T07:35:47;19.80;94.50
7738;DHT22;29398;45.328;5.558;2023-08-06T07:36:49;19.80;94.70
7738;DHT22;29398;45.328;5.558;2023-08-06T07:37:50;19.80;94.60
7738;DHT22;29398;45.328;5.558;2023-08-06T07:39:57;19.90;94.20
7738;DHT22;29398;45.328;5.558;2023-08-06T07:41:01;19.90;94.10
7738;DHT22;29398;45.328;5.558;2023-08-06T07:42:02;19.90;94.20
7738;DHT22;29398;45.328;5.558;2023-08-06T07:43:06;19.90;94.40
7738;DHT22;29398;45.328;5.558;2023-08-06T07:44:07;19.80;94.20
7738;DHT22;29398;45.328;5.558;2023-08-06T07:45:10;19.70;94.00
7738;DHT22;29398;45.328;5.558;2023-08-06T07:46:11;19.70;94.20
7738;DHT22;29398;45.328;5.558;2023-08-06T07:47:14;19.80;94.30
7738;DHT22;29398;45.328;5.558;2023-08-06T07:48:15;19.70;94.30
7738;DHT22;29398;45.328;5.558;2023-08-06T07:49:18;19.70;94.40
7738;DHT22;29398;45.328;5.558;2023-08-06T07:50:19;19.80;94.50
7738;DHT22;29398;45.328;5.558;2023-08-06T07:51:21;19.80;94.60
7738;DHT22;29398;45.328;5.558;2023-08-06T07:52:22;19.80;94.10
7738;DHT22;29398;45.328;5.558;2023-08-06T07:53:25;19.80;94.10
7738;DHT22;29398;45.328;5.558;2023-08-06T07:55:29;19.80;93.80
7738;DHT22;29398;45.328;5.558;2023-08-06T07:56:31;19.70;94.00
7738;DHT22;29398;45.328;5.558;2023-08-06T07:57:32;19.80;93.60
7738;DHT22;29398;45.328;5.558;2023-08-06T07:58:35;19.80;93.60
7738;DHT22;29398;45.328;5.558;2023-08-06T07:59:36;19.70;93.70
7738;DHT22;29398;45.328;5.558;2023-08-06T08:00:38;19.80;93.60
7738;DHT22;29398;45.328;5.558;2023-08-06T08:01:39;19.80;93.40
7738;DHT22;29398;45.328;5.558;2023-08-06T08:02:41;19.80;93.60
7738;DHT22;29398;45.328;5.558;2023-08-06T08:03:42;19.80;94.20
7738;DHT22;29398;45.328;5.558;2023-08-06T08:04:46;19.80;94.20
7738;DHT22;29398;45.328;5.558;2023-08-06T08:05:48;19.80;94.30
7738;DHT22;29398;45.328;5.558;2023-08-06T08:06:50;19.90;94.30
7738;DHT22;29398;45.328;5.558;2023-08-06T08:07:51;19.90;94.40
7738;DHT22;29398;45.328;5.558;2023-08-06T08:08:53;19.90;93.80
7738;DHT22;29398;45.328;5.558;2023-08-06T08:09:54;20.00;93.20
7738;DHT22;29398;45.328;5.558;2023-08-06T08:10:56;20.00;93.30
7738;DHT22;29398;45.328;5.558;2023-08-06T08:11:57;20.00;93.20
7738;DHT22;29398;45.328;5.558;2023-08-06T08:13:01;20.10;93.10
7738;DHT22;29398;45.328;5.558;2023-08-06T08:14:02;20.10;93.10
7738;DHT22;29398;45.328;5.558;2023-08-06T08:15:05;20.10;93.30
7738;DHT22;29398;45.328;5.558;2023-08-06T08:16:06;20.10;93.20
7738;DHT22;29398;45.328;5.558;2023-08-06T08:17:08;20.00;93.30
7738;DHT22;29398;45.328;5.558;2023-08-06T08:18:09;20.00;93.30
7738;DHT22;29398;45.328;5.558;2023-08-06T08:19:11;20.00;93.50